Time;durP1;ratioP1;P1;durP2;ratioP2;P2;SDS_P1;SDS_P2;PMS_P1;PMS_P2;Temp;Humidity;BMP_temperature;BMP_pressure;BME280_temperature;BME280_humidity;BME280_pressure;Samples;Min_cycle;Max_cycle;Signal;HPM_P1;HPM_P2
2021/10/11 00:02:14;;;;;;;17.00;14.18;;;9.70;99.90;;;;;;5074958;28;20029;-85
2021/10/11 00:04:39;;;;;;;19.65;14.02;;;9.70;99.90;;;;;;5075718;28;20020;-85
2021/10/11 00:07:08;;;;;;;20.85;15.20;;;9.90;99.90;;;;;;5072304;28;20414;-86
2021/10/11 00:09:34;;;;;;;20.45;15.43;;;9.60;99.90;;;;;;5078399;28;20123;-86
2021/10/11 00:12:00;;;;;;;19.10;15.05;;;9.60;99.90;;;;;;5075757;28;20510;-86
2021/10/11 00:14:26;;;;;;;19.13;14.85;;;9.90;99.90;;;;;;5076018;28;20028;-85
2021/10/11 00:16:51;;;;;;;17.63;14.30;;;10.00;99.90;;;;;;5075934;28;20040;-86
2021/10/11 00:19:17;;;;;;;19.02;13.52;;;10.00;99.90;;;;;;5070291;28;20029;-85
2021/10/11 00:21:43;;;;;;;19.70;15.15;;;9.60;99.90;;;;;;5076324;28;20373;-86
2021/10/11 00:24:08;;;;;;;19.83;15.00;;;9.70;99.90;;;;;;5074665;28;20051;-85
2021/10/11 00:26:34;;;;;;;16.05;13.52;;;9.70;99.90;;;;;;5075440;28;20031;-85
2021/10/11 00:29:00;;;;;;;18.15;15.00;;;9.80;99.90;;;;;;5076203;28;20051;-86
2021/10/11 00:31:25;;;;;;;18.02;14.60;;;9.90;99.90;;;;;;5073307;28;20043;-85
2021/10/11 00:33:51;;;;;;;20.42;15.25;;;9.80;99.90;;;;;;5074768;28;20036;-85
2021/10/11 00:36:18;;;;;;;21.02;15.55;;;9.80;99.90;;;;;;5075650;28;20029;-85
2021/10/11 00:38:43;;;;;;;17.60;14.35;;;10.40;99.90;;;;;;5075672;28;20020;-86
2021/10/11 00:41:09;;;;;;;15.27;13.18;;;9.80;99.90;;;;;;5073849;28;20036;-85
2021/10/11 00:43:36;;;;;;;18.60;14.55;;;10.10;99.90;;;;;;5074608;28;20556;-86
2021/10/11 00:46:02;;;;;;;15.38;12.73;;;9.50;99.90;;;;;;5070519;28;20028;-86
2021/10/11 00:48:29;;;;;;;16.58;13.45;;;9.60;99.90;;;;;;5077646;28;20086;-85
2021/10/11 00:50:54;;;;;;;20.58;14.77;;;9.60;99.90;;;;;;5073979;28;20052;-85
2021/10/11 00:53:20;;;;;;;15.85;13.38;;;9.60;99.90;;;;;;5074175;28;20028;-85
2021/10/11 00:55:46;;;;;;;20.17;13.70;;;9.80;99.90;;;;;;5075167;28;20020;-85
2021/10/11 00:58:12;;;;;;;17.88;13.82;;;9.90;99.90;;;;;;5069441;28;20060;-85
2021/10/11 01:00:37;;;;;;;16.83;12.98;;;9.80;99.90;;;;;;5093442;28;20438;-86
2021/10/11 01:03:03;;;;;;;16.40;12.63;;;10.20;99.90;;;;;;5073036;28;20067;-86
2021/10/11 01:05:29;;;;;;;15.23;13.57;;;10.00;99.90;;;;;;5074872;28;20020;-85
2021/10/11 01:07:54;;;;;;;16.23;12.65;;;10.50;99.90;;;;;;5073567;28;20044;-86
2021/10/11 01:10:20;;;;;;;18.23;13.20;;;10.20;99.90;;;;;;5071762;28;20028;-86
2021/10/11 01:12:45;;;;;;;17.75;14.00;;;10.40;99.90;;;;;;5073571;28;20032;-86
2021/10/11 01:15:11;;;;;;;15.20;12.68;;;10.30;99.90;;;;;;5075781;28;20020;-85
2021/10/11 01:17:37;;;;;;;16.60;13.32;;;10.40;99.90;;;;;;5074634;28;20541;-85
2021/10/11 01:20:03;;;;;;;15.60;12.73;;;10.50;99.90;;;;;;5073379;28;20467;-86
2021/10/11 01:22:39;;;;;;;18.15;13.10;;;10.50;99.90;;;;;;5072693;28;20052;-85
2021/10/11 01:25:07;;;;;;;15.48;12.52;;;10.70;99.90;;;;;;5070126;28;20028;-85
2021/10/11 01:27:32;;;;;;;17.92;13.00;;;10.70;99.90;;;;;;5076893;28;20040;-85
2021/10/11 01:29:58;;;;;;;14.55;12.68;;;10.90;99.90;;;;;;5072828;28;20021;-86
2021/10/11 01:32:24;;;;;;;14.70;11.95;;;11.30;99.90;;;;;;5073467;28;20039;-85
2021/10/11 01:34:51;;;;;;;15.48;12.95;;;10.90;99.90;;;;;;5073061;28;20108;-85
2021/10/11 01:37:17;;;;;;;15.23;12.52;;;10.80;99.90;;;;;;5069775;28;20075;-85
2021/10/11 01:39:43;;;;;;;16.35;12.52;;;10.80;99.90;;;;;;5074511;28;20025;-85
2021/10/11 01:42:08;;;;;;;19.38;12.73;;;10.70;99.90;;;;;;5073796;28;20031;-85
2021/10/11 01:44:34;;;;;;;15.88;13.05;;;10.70;99.90;;;;;;5074771;28;20028;-85
2021/10/11 01:47:00;;;;;;;18.70;12.88;;;10.80;99.90;;;;;;5072778;28;20039;-86
2021/10/11 01:49:26;;;;;;;15.45;12.30;;;10.90;99.90;;;;;;5071934;28;20016;-85
2021/10/11 01:51:51;;;;;;;15.40;12.90;;;10.90;99.90;;;;;;5073016;28;20028;-86
2021/10/11 01:54:17;;;;;;;17.08;12.13;;;10.70;99.90;;;;;;5075255;28;20016;-86
2021/10/11 01:56:43;;;;;;;16.20;12.48;;;11.00;99.90;;;;;;5071737;28;20395;-85
2021/10/11 01:59:08;;;;;;;17.33;12.73;;;10.70;99.90;;;;;;5074179;28;20050;-86
2021/10/11 02:01:34;;;;;;;16.20;11.68;;;10.80;99.90;;;;;;5071988;28;20028;-86
2021/10/11 02:03:59;;;;;;;17.13;12.95;;;10.90;99.90;;;;;;5070999;28;20859;-86
2021/10/11 02:06:25;;;;;;;16.92;12.70;;;10.80;99.90;;;;;;5076140;28;20077;-86
2021/10/11 02:08:52;;;;;;;15.68;12.52;;;10.80;99.90;;;;;;5073936;28;20041;-85
2021/10/11 02:11:17;;;;;;;18.27;13.32;;;10.90;99.90;;;;;;5074062;28;20028;-85
2021/10/11 02:13:43;;;;;;;16.70;13.13;;;10.80;99.90;;;;;;5074402;28;20047;-86
2021/10/11 02:16:09;;;;;;;16.55;12.88;;;10.90;99.90;;;;;;5051918;28;20112;-86
2021/10/11 02:18:34;;;;;;;15.90;12.88;;;10.90;99.90;;;;;;5074467;28;20472;-86
2021/10/11 02:21:00;;;;;;;16.25;12.82;;;10.90;99.90;;;;;;5071839;28;20029;-85
2021/10/11 02:23:26;;;;;;;18.95;14.30;;;11.30;99.90;;;;;;5073399;28;20443;-86
2021/10/11 02:25:52;;;;;;;18.33;12.98;;;10.90;99.90;;;;;;5074024;28;20028;-86
2021/10/11 02:28:18;;;;;;;18.27;14.10;;;11.00;99.90;;;;;;5070657;28;20039;-86
2021/10/11 02:30:43;;;;;;;15.70;13.10;;;11.30;99.90;;;;;;5072985;28;20028;-86
2021/10/11 02:33:09;;;;;;;16.38;12.93;;;11.00;99.90;;;;;;5074852;28;20487;-86
2021/10/11 02:35:35;;;;;;;14.18;12.63;;;11.50;99.90;;;;;;5072075;28;20056;-86
2021/10/11 02:38:00;;;;;;;16.42;12.65;;;11.10;99.90;;;;;;5073502;28;20032;-85
2021/10/11 02:40:26;;;;;;;16.67;13.07;;;11.10;99.90;;;;;;5071470;28;20055;-85
2021/10/11 02:42:51;;;;;;;15.55;12.52;;;10.90;99.90;;;;;;5071385;28;20391;-85
2021/10/11 02:45:17;;;;;;;16.95;13.35;;;11.40;99.90;;;;;;5075086;28;20025;-85
2021/10/11 02:47:43;;;;;;;17.92;13.23;;;10.90;99.90;;;;;;5073571;28;20039;-85
2021/10/11 02:50:09;;;;;;;17.40;13.55;;;10.80;99.90;;;;;;5073149;28;20115;-85
2021/10/11 02:52:36;;;;;;;15.80;12.68;;;10.80;99.90;;;;;;5071193;28;20028;-86
2021/10/11 02:55:04;;;;;;;18.08;13.32;;;10.80;99.90;;;;;;5069075;28;20032;-85
2021/10/11 02:57:29;;;;;;;16.00;12.93;;;10.80;99.90;;;;;;5074546;28;20051;-85
2021/10/11 02:59:55;;;;;;;17.08;14.05;;;10.80;99.90;;;;;;5072428;28;20060;-85
2021/10/11 03:02:21;;;;;;;18.13;14.20;;;10.70;99.90;;;;;;5073354;28;20094;-86
2021/10/11 03:04:47;;;;;;;16.50;13.48;;;10.80;99.90;;;;;;5072833;28;20480;-85
2021/10/11 03:07:13;;;;;;;16.38;13.75;;;10.30;99.90;;;;;;5069535;28;20029;-85
2021/10/11 03:09:39;;;;;;;20.30;13.15;;;10.50;99.90;;;;;;5075226;28;20035;-85
2021/10/11 03:12:05;;;;;;;18.98;13.73;;;10.60;99.90;;;;;;5073372;28;20040;-85
2021/10/11 03:14:32;;;;;;;18.02;13.10;;;10.30;99.90;;;;;;5073300;28;20036;-85
2021/10/11 03:16:57;;;;;;;16.17;13.07;;;10.30;99.90;;;;;;5073495;28;20028;-86
2021/10/11 03:19:23;;;;;;;17.20;13.68;;;10.30;99.90;;;;;;5070938;28;20024;-86
2021/10/11 03:21:49;;;;;;;18.55;14.75;;;10.10;99.90;;;;;;5072417;28;20362;-85
2021/10/11 03:24:14;;;;;;;18.35;14.07;;;10.10;99.90;;;;;;5074635;28;20096;-85
2021/10/11 03:26:41;;;;;;;19.90;14.55;;;10.30;99.90;;;;;;5076644;28;20167;-85
2021/10/11 03:29:07;;;;;;;21.67;14.77;;;10.00;99.90;;;;;;5077312;28;20488;-86
2021/10/11 03:31:32;;;;;;;17.20;14.35;;;10.10;99.90;;;;;;5074273;28;20134;-86
2021/10/11 03:33:58;;;;;;;17.70;13.68;;;10.10;99.90;;;;;;5074173;28;20028;-85
2021/10/11 03:36:24;;;;;;;17.02;13.52;;;10.10;99.90;;;;;;5076698;28;20404;-85
2021/10/11 03:38:49;;;;;;;19.33;13.95;;;10.50;99.90;;;;;;5075104;28;20028;-85
2021/10/11 03:41:15;;;;;;;16.75;13.27;;;10.20;99.90;;;;;;5076607;28;20021;-85
2021/10/11 03:43:40;;;;;;;15.80;13.70;;;10.20;99.90;;;;;;5076602;28;20028;-85
2021/10/11 03:46:06;;;;;;;19.42;14.48;;;10.10;99.90;;;;;;5072846;28;20070;-85
2021/10/11 03:48:33;;;;;;;18.77;14.10;;;10.10;99.90;;;;;;5076805;28;20090;-85
2021/10/11 03:50:58;;;;;;;18.58;14.23;;;10.10;99.90;;;;;;5076209;28;20024;-86
2021/10/11 03:53:24;;;;;;;17.15;13.50;;;10.10;99.90;;;;;;5076385;28;20443;-85
2021/10/11 03:55:50;;;;;;;16.48;13.20;;;10.30;99.90;;;;;;5075947;28;20020;-86
2021/10/11 03:58:15;;;;;;;16.52;13.70;;;10.00;99.90;;;;;;5072521;28;20040;-85
2021/10/11 04:00:41;;;;;;;18.75;14.43;;;10.20;99.90;;;;;;5077688;28;20021;-85
2021/10/11 04:03:08;;;;;;;18.58;13.48;;;10.00;99.90;;;;;;5076922;28;20494;-85
2021/10/11 04:05:34;;;;;;;17.48;13.50;;;9.80;99.90;;;;;;5075511;28;20428;-85
2021/10/11 04:08:07;;;;;;;17.17;13.60;;;9.90;99.90;;;;;;5075773;28;20036;-85
2021/10/11 04:10:38;;;;;;;16.70;13.50;;;9.90;99.90;;;;;;5073108;28;20539;-86
2021/10/11 04:13:05;;;;;;;17.60;14.30;;;9.80;99.90;;;;;;5070880;28;20124;-85
2021/10/11 04:15:31;;;;;;;15.00;12.45;;;10.40;99.90;;;;;;5076180;28;20020;-85
2021/10/11 04:17:56;;;;;;;18.02;13.52;;;10.10;99.90;;;;;;5074168;28;20025;-85
2021/10/11 04:20:22;;;;;;;17.90;14.70;;;10.00;99.90;;;;;;5076080;28;20503;-85
2021/10/11 04:22:48;;;;;;;16.77;13.65;;;10.40;99.90;;;;;;5074842;28;20503;-86
2021/10/11 04:25:14;;;;;;;15.23;13.10;;;10.00;99.90;;;;;;5069678;28;20048;-85
2021/10/11 04:27:40;;;;;;;17.77;13.68;;;10.30;99.90;;;;;;5077372;28;20536;-85
2021/10/11 04:30:07;;;;;;;18.08;13.38;;;9.80;99.90;;;;;;5075592;28;20063;-84
2021/10/11 04:32:33;;;;;;;17.42;13.85;;;9.80;99.90;;;;;;5074940;28;20115;-86
2021/10/11 04:34:59;;;;;;;15.27;13.27;;;9.80;99.90;;;;;;5075096;28;20520;-86
2021/10/11 04:37:25;;;;;;;18.08;13.82;;;10.20;99.90;;;;;;5070905;28;20408;-85
2021/10/11 04:39:51;;;;;;;19.08;13.82;;;10.20;99.90;;;;;;5074846;28;20020;-86
2021/10/11 04:42:17;;;;;;;17.73;13.88;;;10.00;99.90;;;;;;5076219;28;20025;-85
2021/10/11 04:44:42;;;;;;;17.10;14.13;;;10.10;99.90;;;;;;5075866;28;20032;-85
2021/10/11 04:47:08;;;;;;;18.38;14.23;;;9.60;99.90;;;;;;5074948;28;20055;-85
2021/10/11 04:49:34;;;;;;;20.20;14.77;;;9.50;99.90;;;;;;5074096;28;20059;-85
2021/10/11 04:51:59;;;;;;;16.73;14.27;;;9.90;99.90;;;;;;5071279;28;20021;-85
2021/10/11 04:54:25;;;;;;;17.75;13.93;;;9.50;99.90;;;;;;5074265;28;20086;-86
2021/10/11 04:56:51;;;;;;;16.17;13.77;;;9.40;99.90;;;;;;5074016;28;20023;-85
2021/10/11 04:59:16;;;;;;;19.80;14.60;;;9.80;99.90;;;;;;5075430;28;20025;-85
2021/10/11 05:01:42;;;;;;;19.92;14.35;;;9.60;99.90;;;;;;5074429;28;20073;-85
2021/10/11 05:04:08;;;;;;;16.27;13.43;;;9.40;99.90;;;;;;5070789;28;20033;-85
2021/10/11 05:06:33;;;;;;;14.90;13.18;;;9.60;99.90;;;;;;5077441;28;20025;-86
2021/10/11 05:09:00;;;;;;;16.58;12.68;;;9.50;99.90;;;;;;5074834;28;20033;-85
2021/10/11 05:11:29;;;;;;;16.90;12.82;;;9.70;99.90;;;;;;5073535;28;20048;-85
2021/10/11 05:13:55;;;;;;;16.23;12.80;;;9.40;99.90;;;;;;5073250;28;20044;-85
2021/10/11 05:16:22;;;;;;;16.73;12.80;;;9.40;99.90;;;;;;5071325;28;20037;-86
2021/10/11 05:18:48;;;;;;;16.67;13.02;;;9.60;99.90;;;;;;5074332;28;20028;-85
2021/10/11 05:21:14;;;;;;;15.80;12.82;;;9.70;99.90;;;;;;5075823;28;20036;-85
2021/10/11 05:23:39;;;;;;;15.93;12.43;;;9.70;99.90;;;;;;5074290;28;20037;-88
2021/10/11 05:26:05;;;;;;;15.90;13.05;;;9.80;99.90;;;;;;5074496;28;20043;-87
2021/10/11 05:28:31;;;;;;;14.70;12.48;;;9.80;99.90;;;;;;5072678;28;20504;-85
2021/10/11 05:30:56;;;;;;;15.43;12.15;;;9.70;99.90;;;;;;5072526;28;20524;-85
2021/10/11 05:33:22;;;;;;;15.07;12.13;;;9.70;99.90;;;;;;5074390;28;20085;-85
2021/10/11 05:35:52;;;;;;;14.85;12.35;;;9.60;99.90;;;;;;5072726;28;20040;-84
2021/10/11 05:38:17;;;;;;;17.38;12.70;;;9.50;99.90;;;;;;5074724;28;20075;-85
2021/10/11 05:40:43;;;;;;;15.35;12.43;;;9.80;99.90;;;;;;5074477;28;20032;-86
2021/10/11 05:43:09;;;;;;;16.50;12.50;;;9.60;99.90;;;;;;5070080;28;20132;-85
2021/10/11 05:45:34;;;;;;;15.43;13.57;;;9.90;99.90;;;;;;5075712;28;20029;-84
2021/10/11 05:48:00;;;;;;;16.40;13.32;;;9.50;99.90;;;;;;5073718;28;20072;-84
2021/10/11 05:50:25;;;;;;;16.48;13.50;;;9.30;99.90;;;;;;5074825;28;20028;-84
2021/10/11 05:52:51;;;;;;;17.92;13.60;;;9.30;99.90;;;;;;5073717;28;20084;-86
2021/10/11 05:55:17;;;;;;;16.05;13.00;;;9.60;99.90;;;;;;5070251;28;20044;-83
2021/10/11 05:57:42;;;;;;;17.13;12.52;;;9.40;99.90;;;;;;5073749;28;20028;-82
2021/10/11 06:00:09;;;;;;;14.95;12.73;;;9.70;99.90;;;;;;5074394;28;20028;-83
2021/10/11 06:02:35;;;;;;;17.63;13.23;;;9.50;99.90;;;;;;5074388;28;20035;-83
2021/10/11 06:05:01;;;;;;;16.80;13.52;;;9.40;99.90;;;;;;5073462;28;20040;-83
2021/10/11 06:07:27;;;;;;;17.55;13.50;;;9.40;99.90;;;;;;5072334;28;20396;-82
2021/10/11 06:09:55;;;;;;;15.50;13.00;;;10.00;99.90;;;;;;5072720;28;20032;-84
2021/10/11 06:12:21;;;;;;;16.02;12.75;;;10.10;99.90;;;;;;5073461;28;20020;-84
2021/10/11 06:14:46;;;;;;;16.63;13.13;;;9.70;99.90;;;;;;5072046;28;20566;-84
2021/10/11 06:17:12;;;;;;;19.58;13.25;;;10.20;99.90;;;;;;5073482;28;20028;-84
2021/10/11 06:19:38;;;;;;;15.68;13.52;;;9.70;99.90;;;;;;5073136;28;20028;-84
2021/10/11 06:22:03;;;;;;;15.70;12.75;;;9.70;99.90;;;;;;5070253;28;20052;-84
2021/10/11 06:24:29;;;;;;;17.35;13.45;;;9.70;99.90;;;;;;5075842;28;20021;-83
2021/10/11 06:26:55;;;;;;;21.98;13.00;;;9.70;99.90;;;;;;5073417;28;20439;-83
2021/10/11 06:29:21;;;;;;;14.90;12.38;;;9.70;99.90;;;;;;5073290;28;20511;-84
2021/10/11 06:31:47;;;;;;;16.95;13.32;;;9.80;99.90;;;;;;5074066;28;20020;-84
2021/10/11 06:34:12;;;;;;;15.15;12.75;;;10.20;99.90;;;;;;5069462;28;20162;-85
2021/10/11 06:36:38;;;;;;;17.20;13.20;;;9.80;99.90;;;;;;5076068;28;20033;-84
2021/10/11 06:39:04;;;;;;;18.73;12.73;;;9.80;99.90;;;;;;5073899;28;20029;-84
2021/10/11 06:41:30;;;;;;;16.35;13.23;;;9.80;99.90;;;;;;5073517;28;20039;-83
2021/10/11 06:43:56;;;;;;;18.15;13.88;;;9.90;99.90;;;;;;5073340;28;20012;-84
2021/10/11 06:46:22;;;;;;;15.85;13.60;;;9.80;99.90;;;;;;5070921;28;20082;-84
2021/10/11 06:48:47;;;;;;;18.67;13.77;;;10.00;99.90;;;;;;5073291;28;20451;-84
2021/10/11 06:51:15;;;;;;;20.23;15.32;;;10.40;99.90;;;;;;5072913;28;20044;-83
2021/10/11 06:53:41;;;;;;;17.45;13.07;;;9.90;99.90;;;;;;5071899;28;20679;-83
2021/10/11 06:56:06;;;;;;;15.40;12.35;;;9.70;99.90;;;;;;5073812;28;20111;-83
2021/10/11 06:58:32;;;;;;;15.77;13.18;;;9.70;99.90;;;;;;5071703;28;20120;-82
2021/10/11 07:00:58;;;;;;;16.63;13.60;;;9.90;99.90;;;;;;5073040;28;20408;-82
2021/10/11 07:03:24;;;;;;;17.95;13.60;;;9.90;99.90;;;;;;5079544;28;20489;-82
2021/10/11 07:05:51;;;;;;;15.82;12.98;;;10.20;99.90;;;;;;5076608;28;20032;-82
2021/10/11 07:08:17;;;;;;;15.50;13.45;;;9.60;99.90;;;;;;5077530;28;20032;-82
2021/10/11 07:10:43;;;;;;;16.42;12.88;;;9.70;99.90;;;;;;5077040;28;20028;-82
2021/10/11 07:13:08;;;;;;;14.35;12.52;;;9.80;99.90;;;;;;5072395;28;20124;-83
2021/10/11 07:15:34;;;;;;;17.52;13.40;;;10.20;99.90;;;;;;5079345;28;20488;-82
2021/10/11 07:18:00;;;;;;;15.32;12.63;;;9.90;99.90;;;;;;5077060;28;20039;-81
2021/10/11 07:20:26;;;;;;;18.23;11.95;;;10.00;99.90;;;;;;5077550;28;20069;-82
2021/10/11 07:22:52;;;;;;;13.65;11.73;;;10.10;99.90;;;;;;5076758;28;20043;-82
2021/10/11 07:25:18;;;;;;;19.05;12.70;;;10.60;99.90;;;;;;5074091;28;20497;-82
2021/10/11 07:27:44;;;;;;;16.75;11.57;;;10.20;99.90;;;;;;5077274;28;20393;-78
2021/10/11 07:30:09;;;;;;;15.13;11.77;;;10.50;99.90;;;;;;5076074;28;20028;-78
2021/10/11 07:32:35;;;;;;;16.52;13.02;;;10.40;99.90;;;;;;5075647;28;20024;-82
2021/10/11 07:35:01;;;;;;;15.43;11.65;;;10.90;99.90;;;;;;5076999;28;20024;-79
2021/10/11 07:37:27;;;;;;;15.07;11.35;;;10.90;99.90;;;;;;5074461;28;20021;-78
2021/10/11 07:39:53;;;;;;;15.50;11.43;;;10.90;99.90;;;;;;5075462;28;20051;-77
2021/10/11 07:42:19;;;;;;;17.85;11.93;;;10.90;99.90;;;;;;5078056;28;20024;-78
2021/10/11 07:44:45;;;;;;;14.90;11.68;;;11.00;99.90;;;;;;5076696;28;20029;-83
2021/10/11 07:47:11;;;;;;;14.82;11.00;;;10.80;99.90;;;;;;5070407;28;20480;-84
2021/10/11 07:49:36;;;;;;;14.10;11.05;;;10.60;99.90;;;;;;5088048;28;20032;-84
2021/10/11 07:52:03;;;;;;;14.48;11.63;;;10.50;99.90;;;;;;5073267;28;20515;-83
2021/10/11 07:54:28;;;;;;;14.02;11.07;;;10.60;99.90;;;;;;5078004;28;20492;-83
2021/10/11 07:56:55;;;;;;;14.02;10.98;;;10.40;99.90;;;;;;5075192;28;20078;-83
2021/10/11 07:59:21;;;;;;;13.38;11.27;;;10.50;99.90;;;;;;5076762;28;20017;-84
2021/10/11 08:01:46;;;;;;;13.80;11.77;;;10.70;99.90;;;;;;5076325;28;20391;-84
2021/10/11 08:04:12;;;;;;;12.80;11.10;;;10.90;99.90;;;;;;5072781;28;20025;-84
2021/10/11 08:06:38;;;;;;;13.73;10.52;;;11.40;99.90;;;;;;5078232;28;20515;-89
2021/10/11 08:09:04;;;;;;;11.95;9.77;;;11.60;99.90;;;;;;5077819;28;20036;-88
2021/10/11 08:11:30;;;;;;;13.93;10.98;;;11.70;99.90;;;;;;5082510;28;20078;-87
2021/10/11 08:13:57;;;;;;;11.30;10.05;;;11.50;99.90;;;;;;5086351;28;20510;-88
2021/10/11 08:16:22;;;;;;;14.82;11.05;;;11.60;99.90;;;;;;5073550;28;20024;-87
2021/10/11 08:18:48;;;;;;;12.65;10.93;;;11.50;99.90;;;;;;5076208;28;20443;-88
2021/10/11 08:21:13;;;;;;;12.95;11.32;;;11.50;99.90;;;;;;5077381;28;20028;-89
2021/10/11 08:23:41;;;;;;;15.25;11.07;;;11.00;99.90;;;;;;5075338;28;20516;-89
2021/10/11 08:26:10;;;;;;;14.48;10.88;;;10.90;99.90;;;;;;5076532;28;20028;-89
2021/10/11 08:28:38;;;;;;;15.90;12.27;;;11.00;99.90;;;;;;5075424;28;20533;-89
2021/10/11 08:31:04;;;;;;;14.80;11.18;;;10.70;99.90;;;;;;5073134;28;20033;-89
2021/10/11 08:33:29;;;;;;;13.13;11.23;;;10.90;99.90;;;;;;5111140;27;20074;-89
2021/10/11 08:35:55;;;;;;;13.70;10.88;;;11.00;99.90;;;;;;5109470;27;20548;-89
2021/10/11 08:38:21;;;;;;;12.02;10.50;;;11.10;99.90;;;;;;5108744;27;20103;-89
2021/10/11 08:40:48;;;;;;;12.23;10.75;;;11.30;99.90;;;;;;5074363;28;20442;-89
2021/10/11 08:43:13;;;;;;;13.93;10.63;;;11.40;99.90;;;;;;5072475;28;20399;-89
2021/10/11 08:45:42;;;;;;;11.77;10.32;;;11.70;99.90;;;;;;5077154;28;20016;-89
2021/10/11 08:48:08;;;;;;;14.23;10.75;;;12.10;99.90;;;;;;5074856;28;20040;-89
2021/10/11 08:50:34;;;;;;;11.80;9.77;;;12.10;99.90;;;;;;5073937;28;20024;-89
2021/10/11 08:53:00;;;;;;;12.82;10.60;;;11.80;99.90;;;;;;5076022;28;20094;-89
2021/10/11 08:55:25;;;;;;;14.02;9.85;;;11.80;99.90;;;;;;5073303;28;20024;-89
2021/10/11 08:58:03;;;;;;;12.32;10.45;;;11.50;99.90;;;;;;5075724;28;20372;-88
2021/10/11 09:00:36;;;;;;;15.30;10.10;;;11.50;99.90;;;;;;5075932;28;20095;-86
2021/10/11 09:03:02;;;;;;;13.65;9.85;;;11.90;99.90;;;;;;5075030;28;20504;-86
2021/10/11 09:05:36;;;;;;;13.43;8.52;;;18.60;99.90;;;;;;5075315;28;20024;-86
2021/10/11 09:08:08;;;;;;;10.43;8.02;;;24.90;99.90;;;;;;5074962;28;20146;-87
2021/10/11 09:10:55;;;;;;;11.90;8.05;;;27.30;99.90;;;;;;5073325;28;20024;-88
2021/10/11 09:13:33;;;;;;;11.65;8.82;;;25.70;99.90;;;;;;5049371;28;20453;-88
2021/10/11 09:18:55;;;;;;;10.35;9.25;;;17.60;99.90;;;;;;5086967;28;20032;-90
2021/10/11 09:21:36;;;;;;;10.05;8.55;;;15.60;99.90;;;;;;5088966;28;20081;-88
2021/10/11 09:24:13;;;;;;;12.98;9.52;;;15.60;99.90;;;;;;5072495;28;20055;-91
2021/10/11 09:26:46;;;;;;;12.32;9.02;;;21.70;99.90;;;;;;5075960;28;20024;-92
2021/10/11 09:29:14;;;;;;;10.60;9.50;;;25.30;99.90;;;;;;5062302;28;20128;-93
2021/10/11 09:31:48;;;;;;;10.50;8.82;;;28.00;99.90;;;;;;5062695;28;20024;-92
2021/10/11 09:34:15;;;;;;;10.13;9.00;;;29.60;99.90;;;;;;5091974;28;20032;-93
2021/10/11 09:36:41;;;;;;;9.55;8.55;;;30.80;99.90;;;;;;5070480;28;20111;-93
2021/10/11 09:39:07;;;;;;;10.75;9.30;;;28.40;99.90;;;;;;5075575;28;20104;-86
2021/10/11 09:41:32;;;;;;;9.70;8.70;;;31.30;99.90;;;;;;5073847;28;20048;-89
2021/10/11 09:43:58;;;;;;;9.70;8.80;;;32.70;99.90;;;;;;5071872;28;20033;-93
2021/10/11 09:46:26;;;;;;;10.88;9.30;;;27.20;99.90;;;;;;5067647;28;20499;-89
2021/10/11 09:48:57;;;;;;;10.60;9.50;;;25.10;99.90;;;;;;5084661;28;20036;-88
2021/10/11 09:51:24;;;;;;;10.80;9.70;;;23.10;99.90;;;;;;5076010;28;20099;-91
2021/10/11 09:53:53;;;;;;;12.05;10.82;;;21.40;99.90;;;;;;5056036;28;20117;-90
2021/10/11 09:56:19;;;;;;;11.85;10.65;;;20.70;99.90;;;;;;5068350;28;20020;-86
2021/10/11 09:58:45;;;;;;;9.90;8.88;;;23.90;99.90;;;;;;5074124;28;20051;-86
2021/10/11 10:01:11;;;;;;;10.90;9.43;;;29.40;99.90;;;;;;5069059;28;20021;-89
2021/10/11 10:03:37;;;;;;;11.57;9.75;;;31.60;99.90;;;;;;5076433;28;20476;-85
2021/10/11 10:06:06;;;;;;;10.70;9.60;;;33.00;99.90;;;;;;5074860;28;20024;-86
2021/10/11 10:08:34;;;;;;;14.18;9.90;;;34.40;99.90;;;;;;5072409;28;20121;-86
2021/10/11 10:11:01;;;;;;;12.70;10.55;;;33.70;99.90;;;;;;5074605;28;20024;-90
2021/10/11 10:13:29;;;;;;;10.45;9.27;;;34.30;99.90;;;;;;5069206;28;20052;-93
2021/10/11 10:16:07;;;;;;;10.38;9.38;;;34.20;99.90;;;;;;5072770;28;20384;-88
2021/10/11 10:18:41;;;;;;;10.70;9.60;;;34.70;99.90;;;;;;5076276;28;20032;-88
2021/10/11 10:21:07;;;;;;;10.02;9.00;;;36.30;99.90;;;;;;5073534;28;20029;-87
2021/10/11 10:23:32;;;;;;;11.95;10.18;;;37.10;99.90;;;;;;5073893;28;20052;-85
2021/10/11 10:26:01;;;;;;;10.65;9.63;;;33.70;99.90;;;;;;5072871;28;20531;-89
2021/10/11 10:28:47;;;;;;;11.07;9.98;;;26.50;99.90;;;;;;5072519;28;20102;-87
2021/10/11 10:31:35;;;;;;;11.07;9.98;;;29.60;99.90;;;;;;5052985;28;20029;-89
2021/10/11 10:34:01;;;;;;;11.48;10.27;;;30.80;99.90;;;;;;5070851;28;20017;-87
2021/10/11 10:36:30;;;;;;;10.98;9.85;;;31.20;99.90;;;;;;5079249;28;20028;-86
2021/10/11 10:39:02;;;;;;;10.70;9.70;;;30.90;99.90;;;;;;5078604;28;20016;-87
2021/10/11 10:41:29;;;;;;;12.10;9.55;;;33.30;99.90;;;;;;5079170;28;20033;-89
2021/10/11 10:43:55;;;;;;;11.20;10.02;;;34.10;99.90;;;;;;5075646;28;20027;-88
2021/10/11 10:46:21;;;;;;;11.43;10.23;;;34.90;99.90;;;;;;5071846;28;20025;-88
2021/10/11 10:48:50;;;;;;;11.13;10.02;;;35.20;99.90;;;;;;5088375;28;20036;-89
2021/10/11 10:51:17;;;;;;;11.20;10.10;;;34.90;99.90;;;;;;5079594;28;20056;-87
2021/10/11 10:53:51;;;;;;;12.00;10.25;;;34.90;99.90;;;;;;5077322;28;20031;-88
2021/10/11 10:56:17;;;;;;;12.82;10.07;;;34.00;99.90;;;;;;5077649;28;20028;-88
2021/10/11 10:58:42;;;;;;;10.30;9.40;;;35.90;99.90;;;;;;5078073;28;20116;-88
2021/10/11 11:01:08;;;;;;;10.90;9.80;;;36.40;99.90;;;;;;5074290;28;20040;-88
2021/10/11 11:03:33;;;;;;;10.50;9.45;;;35.00;99.90;;;;;;5079982;28;20028;-85
2021/10/11 11:06:03;;;;;;;11.02;9.43;;;34.70;99.90;;;;;;5077049;28;20083;-90
2021/10/11 11:08:29;;;;;;;10.73;9.63;;;35.00;99.90;;;;;;5077517;28;20056;-87
2021/10/11 11:10:59;;;;;;;11.25;10.15;;;35.10;99.90;;;;;;5077126;28;20514;-88
2021/10/11 11:13:25;;;;;;;10.15;9.25;;;36.50;99.90;;;;;;5075150;28;20395;-95
2021/10/11 11:15:52;;;;;;;10.45;9.35;;;35.70;99.90;;;;;;5076475;28;20020;-87
2021/10/11 11:18:21;;;;;;;9.88;8.98;;;35.30;99.90;;;;;;5078626;28;20017;-85
2021/10/11 11:20:48;;;;;;;9.57;8.68;;;36.20;99.90;;;;;;5076742;28;20071;-86
2021/10/11 11:23:25;;;;;;;10.07;9.00;;;36.20;99.90;;;;;;5075837;28;20416;-85
2021/10/11 11:25:53;;;;;;;9.60;8.80;;;35.60;99.90;;;;;;5075518;28;20482;-84
2021/10/11 11:28:27;;;;;;;14.77;9.27;;;36.50;99.90;;;;;;5073357;28;20535;-86
2021/10/11 11:30:59;;;;;;;10.85;9.77;;;36.90;99.90;;;;;;5075679;28;20028;-85
2021/10/11 11:33:27;;;;;;;9.90;8.90;;;36.90;99.90;;;;;;5076529;28;20048;-85
2021/10/11 11:35:55;;;;;;;10.40;9.40;;;37.80;99.90;;;;;;5076539;28;20476;-85
2021/10/11 11:38:23;;;;;;;10.45;9.43;;;36.30;99.90;;;;;;5077219;28;20025;-85
2021/10/11 11:40:58;;;;;;;9.63;8.68;;;36.60;99.90;;;;;;5076600;28;20023;-85
2021/10/11 11:43:24;;;;;;;10.90;9.85;;;37.10;99.90;;;;;;5073804;28;20107;-86
2021/10/11 11:45:55;;;;;;;10.18;9.18;;;37.90;99.90;;;;;;5076121;28;20496;-85
2021/10/11 11:48:32;;;;;;;11.23;10.23;;;36.80;99.90;;;;;;5077978;28;20033;-85
2021/10/11 11:51:00;;;;;;;11.45;10.35;;;37.40;99.90;;;;;;5076188;28;20029;-85
2021/10/11 11:53:29;;;;;;;10.45;9.55;;;37.50;99.90;;;;;;5076124;28;20036;-85
2021/10/11 11:55:57;;;;;;;10.18;9.20;;;36.20;99.90;;;;;;5076679;28;20395;-85
2021/10/11 11:58:27;;;;;;;11.13;10.13;;;36.50;99.90;;;;;;5072009;28;20028;-85
2021/10/11 12:00:56;;;;;;;11.65;10.55;;;35.90;99.90;;;;;;5074779;28;20024;-85
2021/10/11 12:03:24;;;;;;;11.18;10.00;;;35.10;99.90;;;;;;5075849;28;20020;-85
2021/10/11 12:05:52;;;;;;;11.32;10.18;;;34.60;99.90;;;;;;5074700;28;20024;-85
2021/10/11 12:08:19;;;;;;;10.48;9.38;;;36.00;99.90;;;;;;5075972;28;20106;-85
2021/10/11 12:11:15;;;;;;;11.43;10.35;;;36.30;99.90;;;;;;5076649;28;20020;-85
2021/10/11 12:13:43;;;;;;;11.10;10.10;;;34.60;99.90;;;;;;5075383;28;20036;-85
2021/10/11 12:16:19;;;;;;;12.23;10.73;;;34.80;99.90;;;;;;5071022;28;20118;-84
2021/10/11 12:18:53;;;;;;;11.80;10.60;;;34.80;99.90;;;;;;5085223;28;20032;-85
2021/10/11 12:21:29;;;;;;;12.35;9.82;;;34.70;99.90;;;;;;5077445;28;20052;-85
2021/10/11 12:24:11;;;;;;;11.80;10.38;;;35.90;99.90;;;;;;5075988;28;20508;-85
2021/10/11 12:26:45;;;;;;;11.65;10.65;;;35.60;99.90;;;;;;5075818;28;20167;-85
2021/10/11 12:29:12;;;;;;;11.05;9.95;;;35.80;99.90;;;;;;5075982;28;20032;-85
2021/10/11 12:31:37;;;;;;;11.85;10.52;;;36.30;99.90;;;;;;5074515;28;20023;-85
2021/10/11 12:34:08;;;;;;;11.68;10.07;;;36.50;99.90;;;;;;5072425;28;20033;-85